sensor_id;sensor_type;location;lat;lon;timestamp;pressure;altitude;pressure_sealevel;temperature;humidity
10606;BME280;5350;42.698;23.148;2023-12-29T00:00:14;94293.00;;;4.79;100.00
10606;BME280;5350;42.698;23.148;2023-12-29T00:02:41;94288.19;;;4.88;100.00
10606;BME280;5350;42.698;23.148;2023-12-29T00:05:08;94290.06;;;4.93;100.00
10606;BME280;5350;42.698;23.148;2023-12-29T00:07:34;94286.69;;;4.92;100.00
10606;BME280;5350;42.698;23.148;2023-12-29T00:10:01;94277.56;;;4.95;100.00
10606;BME280;5350;42.698;23.148;2023-12-29T00:12:28;94278.66;;;4.99;100.00
10606;BME280;5350;42.698;23.148;2023-12-29T00:14:55;94277.75;;;5.05;100.00
10606;BME280;5350;42.698;23.148;2023-12-29T00:17:23;94276.94;;;5.04;100.00
10606;BME280;5350;42.698;23.148;2023-12-29T00:19:49;94270.63;;;5.00;100.00
10606;BME280;5350;42.698;23.148;2023-12-29T00:22:16;94267.53;;;5.03;100.00
10606;BME280;5350;42.698;23.148;2023-12-29T00:24:43;94271.41;;;5.01;100.00
10606;BME280;5350;42.698;23.148;2023-12-29T00:27:10;94261.13;;;5.11;100.00
10606;BME280;5350;42.698;23.148;2023-12-29T00:29:37;94259.84;;;5.13;100.00
10606;BME280;5350;42.698;23.148;2023-12-29T00:32:05;94265.38;;;5.17;100.00
10606;BME280;5350;42.698;23.148;2023-12-29T00:34:33;94246.59;;;5.15;100.00
10606;BME280;5350;42.698;23.148;2023-12-29T00:37:00;94255.22;;;5.15;100.00
10606;BME280;5350;42.698;23.148;2023-12-29T00:39:27;94249.50;;;5.18;100.00
10606;BME280;5350;42.698;23.148;2023-12-29T00:41:56;94250.53;;;5.17;100.00
10606;BME280;5350;42.698;23.148;2023-12-29T00:44:23;94248.72;;;5.01;100.00
10606;BME280;5350;42.698;23.148;2023-12-29T00:46:50;94247.38;;;4.99;100.00
10606;BME280;5350;42.698;23.148;2023-12-29T00:49:16;94258.59;;;4.99;100.00
10606;BME280;5350;42.698;23.148;2023-12-29T00:51:47;94262.00;;;5.00;100.00
10606;BME280;5350;42.698;23.148;2023-12-29T00:54:14;94270.06;;;4.98;100.00
10606;BME280;5350;42.698;23.148;2023-12-29T00:56:41;94253.56;;;4.76;100.00
10606;BME280;5350;42.698;23.148;2023-12-29T00:59:08;94264.47;;;4.73;100.00
10606;BME280;5350;42.698;23.148;2023-12-29T01:01:35;94262.19;;;4.60;100.00
10606;BME280;5350;42.698;23.148;2023-12-29T01:04:02;94267.13;;;4.45;100.00
10606;BME280;5350;42.698;23.148;2023-12-29T01:06:29;94272.34;;;4.45;100.00
10606;BME280;5350;42.698;23.148;2023-12-29T01:08:57;94283.63;;;4.05;100.00
10606;BME280;5350;42.698;23.148;2023-12-29T01:11:24;94271.91;;;3.91;100.00
10606;BME280;5350;42.698;23.148;2023-12-29T01:13:51;94273.25;;;3.66;100.00
10606;BME280;5350;42.698;23.148;2023-12-29T01:16:18;94268.09;;;3.43;100.00
10606;BME280;5350;42.698;23.148;2023-12-29T01:18:45;94269.88;;;3.42;100.00
10606;BME280;5350;42.698;23.148;2023-12-29T01:21:12;94281.81;;;3.15;100.00
10606;BME280;5350;42.698;23.148;2023-12-29T01:23:39;94280.44;;;3.24;100.00
10606;BME280;5350;42.698;23.148;2023-12-29T01:26:07;94285.84;;;3.34;100.00
10606;BME280;5350;42.698;23.148;2023-12-29T01:28:34;94283.94;;;3.41;100.00
10606;BME280;5350;42.698;23.148;2023-12-29T01:31:01;94281.53;;;3.51;100.00
10606;BME280;5350;42.698;23.148;2023-12-29T01:33:27;94280.59;;;3.57;100.00
10606;BME280;5350;42.698;23.148;2023-12-29T01:35:54;94284.81;;;3.47;100.00
10606;BME280;5350;42.698;23.148;2023-12-29T01:38:21;94282.31;;;3.52;100.00
10606;BME280;5350;42.698;23.148;2023-12-29T01:40:48;94278.56;;;3.59;100.00
10606;BME280;5350;42.698;23.148;2023-12-29T01:43:16;94275.31;;;3.52;100.00
10606;BME280;5350;42.698;23.148;2023-12-29T01:45:43;94269.81;;;3.37;100.00
10606;BME280;5350;42.698;23.148;2023-12-29T01:48:09;94264.28;;;3.22;100.00
10606;BME280;5350;42.698;23.148;2023-12-29T01:50:36;94260.22;;;3.03;100.00
10606;BME280;5350;42.698;23.148;2023-12-29T01:53:03;94256.16;;;2.84;100.00
10606;BME280;5350;42.698;23.148;2023-12-29T01:55:32;94244.41;;;3.04;100.00
10606;BME280;5350;42.698;23.148;2023-12-29T01:57:59;94248.22;;;3.13;100.00
10606;BME280;5350;42.698;23.148;2023-12-29T02:00:28;94250.50;;;3.10;100.00
10606;BME280;5350;42.698;23.148;2023-12-29T02:02:57;94247.78;;;3.16;100.00
10606;BME280;5350;42.698;23.148;2023-12-29T02:05:26;94227.44;;;3.13;100.00
10606;BME280;5350;42.698;23.148;2023-12-29T02:07:56;94236.00;;;3.25;100.00
10606;BME280;5350;42.698;23.148;2023-12-29T02:10:23;94238.47;;;3.32;100.00
10606;BME280;5350;42.698;23.148;2023-12-29T02:12:50;94232.84;;;3.35;100.00
10606;BME280;5350;42.698;23.148;2023-12-29T02:15:20;94228.63;;;3.46;100.00
10606;BME280;5350;42.698;23.148;2023-12-29T02:17:57;94224.97;;;3.58;100.00
10606;BME280;5350;42.698;23.148;2023-12-29T02:20:26;94218.31;;;3.51;100.00
10606;BME280;5350;42.698;23.148;2023-12-29T02:22:52;94211.78;;;3.48;100.00
10606;BME280;5350;42.698;23.148;2023-12-29T02:25:21;94211.66;;;3.43;100.00
10606;BME280;5350;42.698;23.148;2023-12-29T02:27:54;94211.06;;;3.53;100.00
10606;BME280;5350;42.698;23.148;2023-12-29T02:30:27;94202.38;;;3.47;100.00
10606;BME280;5350;42.698;23.148;2023-12-29T02:32:59;94206.78;;;3.47;100.00
10606;BME280;5350;42.698;23.148;2023-12-29T02:35:28;94216.19;;;3.48;100.00
10606;BME280;5350;42.698;23.148;2023-12-29T02:37:59;94204.97;;;3.47;100.00
10606;BME280;5350;42.698;23.148;2023-12-29T02:40:27;94208.13;;;3.49;100.00
10606;BME280;5350;42.698;23.148;2023-12-29T02:42:53;94202.56;;;3.57;100.00
10606;BME280;5350;42.698;23.148;2023-12-29T02:45:20;94200.53;;;3.59;100.00
10606;BME280;5350;42.698;23.148;2023-12-29T02:47:48;94194.22;;;3.55;100.00
10606;BME280;5350;42.698;23.148;2023-12-29T02:50:15;94184.97;;;3.48;100.00
10606;BME280;5350;42.698;23.148;2023-12-29T02:52:42;94190.72;;;3.50;100.00
10606;BME280;5350;42.698;23.148;2023-12-29T02:55:08;94190.03;;;3.54;100.00
10606;BME280;5350;42.698;23.148;2023-12-29T02:57:37;94188.22;;;3.55;100.00
10606;BME280;5350;42.698;23.148;2023-12-29T03:00:05;94172.94;;;3.58;100.00
10606;BME280;5350;42.698;23.148;2023-12-29T03:02:34;94170.03;;;3.71;100.00
10606;BME280;5350;42.698;23.148;2023-12-29T03:05:01;94180.44;;;3.71;100.00
10606;BME280;5350;42.698;23.148;2023-12-29T03:07:28;94173.03;;;3.63;100.00
10606;BME280;5350;42.698;23.148;2023-12-29T03:09:54;94162.72;;;3.68;100.00
10606;BME280;5350;42.698;23.148;2023-12-29T03:12:21;94173.78;;;3.75;100.00
10606;BME280;5350;42.698;23.148;2023-12-29T03:14:50;94183.44;;;3.63;100.00
10606;BME280;5350;42.698;23.148;2023-12-29T03:17:17;94157.44;;;3.35;100.00
10606;BME280;5350;42.698;23.148;2023-12-29T03:19:44;94174.09;;;3.51;100.00
10606;BME280;5350;42.698;23.148;2023-12-29T03:22:11;94168.63;;;3.64;100.00
10606;BME280;5350;42.698;23.148;2023-12-29T03:24:40;94158.84;;;3.54;100.00
10606;BME280;5350;42.698;23.148;2023-12-29T03:27:07;94161.28;;;3.61;100.00
10606;BME280;5350;42.698;23.148;2023-12-29T03:29:34;94166.50;;;3.61;100.00
10606;BME280;5350;42.698;23.148;2023-12-29T03:32:02;94166.25;;;3.62;100.00
10606;BME280;5350;42.698;23.148;2023-12-29T03:34:29;94170.41;;;3.63;100.00
10606;BME280;5350;42.698;23.148;2023-12-29T03:36:56;94170.03;;;3.71;100.00
10606;BME280;5350;42.698;23.148;2023-12-29T03:39:23;94174.94;;;3.68;100.00
10606;BME280;5350;42.698;23.148;2023-12-29T03:41:50;94178.34;;;3.68;100.00
10606;BME280;5350;42.698;23.148;2023-12-29T03:44:17;94176.84;;;3.72;100.00
10606;BME280;5350;42.698;23.148;2023-12-29T03:46:44;94173.69;;;3.70;100.00
10606;BME280;5350;42.698;23.148;2023-12-29T03:49:12;94179.16;;;3.57;100.00
10606;BME280;5350;42.698;23.148;2023-12-29T03:51:39;94186.34;;;3.39;100.00
10606;BME280;5350;42.698;23.148;2023-12-29T03:54:05;94180.78;;;3.47;100.00
10606;BME280;5350;42.698;23.148;2023-12-29T03:56:32;94184.06;;;3.42;100.00
10606;BME280;5350;42.698;23.148;2023-12-29T03:59:01;94175.44;;;3.13;100.00
10606;BME280;5350;42.698;23.148;2023-12-29T04:01:28;94176.00;;;3.15;100.00
10606;BME280;5350;42.698;23.148;2023-12-29T04:03:55;94187.03;;;2.71;100.00
10606;BME280;5350;42.698;23.148;2023-12-29T04:06:23;94172.44;;;2.82;100.00
10606;BME280;5350;42.698;23.148;2023-12-29T04:08:51;94173.56;;;2.86;100.00
10606;BME280;5350;42.698;23.148;2023-12-29T04:11:17;94171.28;;;3.01;100.00
10606;BME280;5350;42.698;23.148;2023-12-29T04:13:44;94178.66;;;3.04;100.00
10606;BME280;5350;42.698;23.148;2023-12-29T04:16:11;94179.75;;;3.08;100.00
10606;BME280;5350;42.698;23.148;2023-12-29T04:18:38;94169.94;;;3.10;100.00
10606;BME280;5350;42.698;23.148;2023-12-29T04:21:04;94168.44;;;3.14;100.00
10606;BME280;5350;42.698;23.148;2023-12-29T04:23:32;94169.25;;;3.14;100.00
10606;BME280;5350;42.698;23.148;2023-12-29T04:25:59;94169.00;;;3.16;100.00
10606;BME280;5350;42.698;23.148;2023-12-29T04:28:26;94171.84;;;3.03;100.00
10606;BME280;5350;42.698;23.148;2023-12-29T04:30:53;94174.31;;;3.09;100.00
10606;BME280;5350;42.698;23.148;2023-12-29T04:33:19;94168.13;;;2.99;100.00
10606;BME280;5350;42.698;23.148;2023-12-29T04:35:46;94177.09;;;2.91;100.00
10606;BME280;5350;42.698;23.148;2023-12-29T04:38:24;94170.53;;;2.89;100.00
10606;BME280;5350;42.698;23.148;2023-12-29T04:40:52;94179.47;;;2.81;100.00
10606;BME280;5350;42.698;23.148;2023-12-29T04:43:21;94179.03;;;2.73;100.00
10606;BME280;5350;42.698;23.148;2023-12-29T04:45:48;94176.50;;;2.78;100.00
10606;BME280;5350;42.698;23.148;2023-12-29T04:48:14;94179.56;;;2.86;100.00
10606;BME280;5350;42.698;23.148;2023-12-29T04:50:41;94172.69;;;2.80;100.00
10606;BME280;5350;42.698;23.148;2023-12-29T04:53:08;94168.28;;;2.81;100.00
10606;BME280;5350;42.698;23.148;2023-12-29T04:55:35;94163.19;;;2.74;100.00
10606;BME280;5350;42.698;23.148;2023-12-29T04:58:03;94160.16;;;2.77;100.00
10606;BME280;5350;42.698;23.148;2023-12-29T05:00:30;94163.75;;;2.76;100.00
10606;BME280;5350;42.698;23.148;2023-12-29T05:02:57;94162.75;;;2.77;100.00
10606;BME280;5350;42.698;23.148;2023-12-29T05:05:23;94157.78;;;2.76;100.00
10606;BME280;5350;42.698;23.148;2023-12-29T05:07:50;94163.53;;;2.78;100.00
10606;BME280;5350;42.698;23.148;2023-12-29T05:10:18;94167.72;;;2.56;100.00
10606;BME280;5350;42.698;23.148;2023-12-29T05:12:44;94160.06;;;2.49;100.00
10606;BME280;5350;42.698;23.148;2023-12-29T05:15:12;94164.91;;;2.46;100.00
10606;BME280;5350;42.698;23.148;2023-12-29T05:17:39;94159.38;;;2.54;100.00
10606;BME280;5350;42.698;23.148;2023-12-29T05:20:08;94160.28;;;2.71;100.00
10606;BME280;5350;42.698;23.148;2023-12-29T05:22:35;94158.69;;;2.70;100.00
10606;BME280;5350;42.698;23.148;2023-12-29T05:25:02;94151.44;;;2.72;100.00
10606;BME280;5350;42.698;23.148;2023-12-29T05:27:29;94151.81;;;2.75;100.00
10606;BME280;5350;42.698;23.148;2023-12-29T05:29:55;94160.72;;;2.79;100.00
10606;BME280;5350;42.698;23.148;2023-12-29T05:32:23;94161.41;;;2.75;100.00
10606;BME280;5350;42.698;23.148;2023-12-29T05:34:50;94153.50;;;2.81;100.00
10606;BME280;5350;42.698;23.148;2023-12-29T05:37:17;94152.94;;;2.68;100.00
10606;BME280;5350;42.698;23.148;2023-12-29T05:39:44;94158.25;;;2.73;100.00
10606;BME280;5350;42.698;23.148;2023-12-29T05:42:11;94151.44;;;2.72;100.00
10606;BME280;5350;42.698;23.148;2023-12-29T05:44:38;94152.94;;;2.68;100.00
10606;BME280;5350;42.698;23.148;2023-12-29T05:47:05;94147.38;;;2.76;100.00
10606;BME280;5350;42.698;23.148;2023-12-29T05:49:33;94147.50;;;2.69;100.00
10606;BME280;5350;42.698;23.148;2023-12-29T05:52:04;94152.13;;;2.79;100.00
10606;BME280;5350;42.698;23.148;2023-12-29T05:54:31;94142.19;;;2.76;100.00
10606;BME280;5350;42.698;23.148;2023-12-29T05:56:58;94163.16;;;2.86;100.00
10606;BME280;5350;42.698;23.148;2023-12-29T05:59:25;94161.16;;;2.88;100.00
10606;BME280;5350;42.698;23.148;2023-12-29T06:01:52;94166.59;;;2.75;100.00
10606;BME280;5350;42.698;23.148;2023-12-29T06:04:18;94165.00;;;2.74;100.00
10606;BME280;5350;42.698;23.148;2023-12-29T06:06:46;94154.59;;;2.74;100.00
10606;BME280;5350;42.698;23.148;2023-12-29T06:09:13;94164.34;;;2.67;100.00
10606;BME280;5350;42.698;23.148;2023-12-29T06:11:40;94162.19;;;2.64;100.00
10606;BME280;5350;42.698;23.148;2023-12-29T06:14:07;94167.72;;;2.56;100.00
10606;BME280;5350;42.698;23.148;2023-12-29T06:16:33;94172.81;;;2.51;100.00
10606;BME280;5350;42.698;23.148;2023-12-29T06:19:00;94164.22;;;2.27;100.00
10606;BME280;5350;42.698;23.148;2023-12-29T06:21:27;94165.34;;;2.08;100.00
10606;BME280;5350;42.698;23.148;2023-12-29T06:23:55;94166.22;;;2.13;100.00
10606;BME280;5350;42.698;23.148;2023-12-29T06:26:22;94171.41;;;2.13;100.00
10606;BME280;5350;42.698;23.148;2023-12-29T06:28:48;94168.72;;;2.20;100.00
10606;BME280;5350;42.698;23.148;2023-12-29T06:31:17;94159.47;;;2.24;100.00
10606;BME280;5350;42.698;23.148;2023-12-29T06:33:44;94173.72;;;2.33;100.00
10606;BME280;5350;42.698;23.148;2023-12-29T06:36:12;94177.09;;;2.45;100.00
10606;BME280;5350;42.698;23.148;2023-12-29T06:38:39;94183.09;;;2.46;100.00
10606;BME280;5350;42.698;23.148;2023-12-29T06:41:07;94178.69;;;2.58;100.00
10606;BME280;5350;42.698;23.148;2023-12-29T06:43:34;94179.69;;;2.57;100.00
10606;BME280;5350;42.698;23.148;2023-12-29T06:46:01;94180.28;;;2.59;100.00
10606;BME280;5350;42.698;23.148;2023-12-29T06:48:28;94167.63;;;2.62;100.00
10606;BME280;5350;42.698;23.148;2023-12-29T06:50:54;94173.16;;;2.66;100.00
10606;BME280;5350;42.698;23.148;2023-12-29T06:53:21;94170.75;;;2.87;100.00
10606;BME280;5350;42.698;23.148;2023-12-29T06:55:48;94158.44;;;2.83;100.00
10606;BME280;5350;42.698;23.148;2023-12-29T06:58:16;94162.28;;;2.92;100.00
10606;BME280;5350;42.698;23.148;2023-12-29T07:00:44;94164.53;;;3.00;100.00
10606;BME280;5350;42.698;23.148;2023-12-29T07:03:12;94172.97;;;3.07;100.00
10606;BME280;5350;42.698;23.148;2023-12-29T07:05:39;94174.44;;;3.03;100.00
10606;BME280;5350;42.698;23.148;2023-12-29T07:08:06;94169.59;;;3.06;100.00
10606;BME280;5350;42.698;23.148;2023-12-29T07:10:33;94164.50;;;3.11;100.00
10606;BME280;5350;42.698;23.148;2023-12-29T07:13:00;94173.66;;;3.14;100.00
10606;BME280;5350;42.698;23.148;2023-12-29T07:15:28;94172.03;;;3.24;100.00
10606;BME280;5350;42.698;23.148;2023-12-29T07:17:55;94167.81;;;3.35;100.00
10606;BME280;5350;42.698;23.148;2023-12-29T07:20:21;94157.59;;;3.45;100.00
10606;BME280;5350;42.698;23.148;2023-12-29T07:22:48;94153.53;;;3.49;100.00
10606;BME280;5350;42.698;23.148;2023-12-29T07:25:15;94159.47;;;3.61;100.00
10606;BME280;5350;42.698;23.148;2023-12-29T07:27:42;94157.50;;;3.68;100.00
10606;BME280;5350;42.698;23.148;2023-12-29T07:30:09;94148.31;;;3.77;100.00
10606;BME280;5350;42.698;23.148;2023-12-29T07:32:37;94157.41;;;3.91;100.00
10606;BME280;5350;42.698;23.148;2023-12-29T07:35:05;94147.81;;;4.09;100.00
10606;BME280;5350;42.698;23.148;2023-12-29T07:37:31;94140.31;;;4.12;100.00
10606;BME280;5350;42.698;23.148;2023-12-29T07:39:59;94155.13;;;4.28;100.00
10606;BME280;5350;42.698;23.148;2023-12-29T07:42:25;94161.03;;;4.40;100.00
10606;BME280;5350;42.698;23.148;2023-12-29T07:44:52;94172.41;;;4.51;100.00
10606;BME280;5350;42.698;23.148;2023-12-29T07:47:21;94168.84;;;4.57;100.00
10606;BME280;5350;42.698;23.148;2023-12-29T07:49:49;94159.91;;;4.69;100.00
10606;BME280;5350;42.698;23.148;2023-12-29T07:52:16;94167.09;;;4.79;100.00
10606;BME280;5350;42.698;23.148;2023-12-29T07:54:43;94163.34;;;4.92;100.00
10606;BME280;5350;42.698;23.148;2023-12-29T07:57:10;94162.75;;;5.06;100.00
10606;BME280;5350;42.698;23.148;2023-12-29T07:59:36;94147.53;;;5.20;100.00
10606;BME280;5350;42.698;23.148;2023-12-29T08:02:03;94159.41;;;5.32;100.00
10606;BME280;5350;42.698;23.148;2023-12-29T08:04:30;94164.34;;;5.50;100.00
10606;BME280;5350;42.698;23.148;2023-12-29T08:06:59;94168.06;;;5.59;100.00
10606;BME280;5350;42.698;23.148;2023-12-29T08:09:26;94158.78;;;5.68;100.00
10606;BME280;5350;42.698;23.148;2023-12-29T08:11:52;94154.72;;;5.78;100.00
10606;BME280;5350;42.698;23.148;2023-12-29T08:14:19;94158.47;;;5.87;100.00
10606;BME280;5350;42.698;23.148;2023-12-29T08:16:46;94169.59;;;6.04;100.00
10606;BME280;5350;42.698;23.148;2023-12-29T08:19:13;94157.16;;;6.11;100.00
10606;BME280;5350;42.698;23.148;2023-12-29T08:21:40;94172.91;;;6.21;100.00
10606;BME280;5350;42.698;23.148;2023-12-29T08:24:09;94168.00;;;6.29;100.00
10606;BME280;5350;42.698;23.148;2023-12-29T08:26:43;94165.69;;;6.33;100.00
10606;BME280;5350;42.698;23.148;2023-12-29T08:29:10;94161.53;;;6.37;100.00
10606;BME280;5350;42.698;23.148;2023-12-29T08:31:37;94169.16;;;6.43;100.00
10606;BME280;5350;42.698;23.148;2023-12-29T08:34:04;94175.00;;;6.56;100.00
10606;BME280;5350;42.698;23.148;2023-12-29T08:36:30;94168.56;;;6.68;100.00
10606;BME280;5350;42.698;23.148;2023-12-29T08:38:57;94172.00;;;6.74;100.00
10606;BME280;5350;42.698;23.148;2023-12-29T08:41:25;94175.97;;;6.86;100.00
10606;BME280;5350;42.698;23.148;2023-12-29T08:43:52;94171.28;;;6.83;100.00
10606;BME280;5350;42.698;23.148;2023-12-29T08:46:19;94178.59;;;6.81;100.00
10606;BME280;5350;42.698;23.148;2023-12-29T08:48:46;94184.81;;;6.75;100.00
10606;BME280;5350;42.698;23.148;2023-12-29T08:51:13;94183.75;;;6.71;100.00
10606;BME280;5350;42.698;23.148;2023-12-29T08:53:39;94193.22;;;6.82;100.00
10606;BME280;5350;42.698;23.148;2023-12-29T08:56:06;94186.81;;;7.00;100.00
10606;BME280;5350;42.698;23.148;2023-12-29T08:58:34;94191.81;;;7.06;100.00
10606;BME280;5350;42.698;23.148;2023-12-29T09:01:02;94187.13;;;7.08;100.00
10606;BME280;5350;42.698;23.148;2023-12-29T09:03:28;94191.13;;;7.26;100.00
10606;BME280;5350;42.698;23.148;2023-12-29T09:05:55;94175.03;;;7.54;100.00
10606;BME280;5350;42.698;23.148;2023-12-29T09:08:24;94174.81;;;7.71;100.00
10606;BME280;5350;42.698;23.148;2023-12-29T09:10:52;94173.34;;;8.05;100.00
10606;BME280;5350;42.698;23.148;2023-12-29T09:13:18;94176.28;;;8.29;100.00
10606;BME280;5350;42.698;23.148;2023-12-29T09:15:49;94170.28;;;8.48;100.00
10606;BME280;5350;42.698;23.148;2023-12-29T09:18:16;94166.06;;;8.67;100.00
10606;BME280;5350;42.698;23.148;2023-12-29T09:20:43;94166.03;;;8.88;100.00
10606;BME280;5350;42.698;23.148;2023-12-29T09:23:10;94167.56;;;9.09;100.00
10606;BME280;5350;42.698;23.148;2023-12-29T09:25:36;94157.50;;;9.41;97.63
10606;BME280;5350;42.698;23.148;2023-12-29T09:28:03;94160.06;;;9.61;92.27
10606;BME280;5350;42.698;23.148;2023-12-29T09:30:31;94154.75;;;9.76;90.45
10606;BME280;5350;42.698;23.148;2023-12-29T09:32:59;94149.66;;;9.95;89.50
10606;BME280;5350;42.698;23.148;2023-12-29T09:35:25;94157.44;;;10.15;88.51
10606;BME280;5350;42.698;23.148;2023-12-29T09:37:52;94156.53;;;10.29;84.43
10606;BME280;5350;42.698;23.148;2023-12-29T09:40:19;94136.63;;;10.52;83.17
10606;BME280;5350;42.698;23.148;2023-12-29T09:42:47;94149.88;;;10.76;81.03
10606;BME280;5350;42.698;23.148;2023-12-29T09:45:21;94149.66;;;10.96;78.59
10606;BME280;5350;42.698;23.148;2023-12-29T09:47:51;94146.31;;;11.14;79.38
10606;BME280;5350;42.698;23.148;2023-12-29T09:50:21;94144.56;;;11.09;78.17
10606;BME280;5350;42.698;23.148;2023-12-29T09:52:48;94145.78;;;11.17;78.09
10606;BME280;5350;42.698;23.148;2023-12-29T09:55:16;94156.53;;;11.20;77.08
10606;BME280;5350;42.698;23.148;2023-12-29T09:57:44;94143.09;;;11.22;77.16
10606;BME280;5350;42.698;23.148;2023-12-29T10:00:12;94140.09;;;11.28;76.52
10606;BME280;5350;42.698;23.148;2023-12-29T10:02:39;94144.53;;;11.33;73.55
10606;BME280;5350;42.698;23.148;2023-12-29T10:05:07;94140.97;;;11.24;74.63
10606;BME280;5350;42.698;23.148;2023-12-29T10:07:38;94143.09;;;11.22;73.28
10606;BME280;5350;42.698;23.148;2023-12-29T10:10:06;94137.69;;;11.08;74.38
10606;BME280;5350;42.698;23.148;2023-12-29T10:12:33;94137.19;;;11.06;75.02
10606;BME280;5350;42.698;23.148;2023-12-29T10:15:06;94126.81;;;10.91;76.53
10606;BME280;5350;42.698;23.148;2023-12-29T10:17:50;94115.34;;;11.06;75.36
10606;BME280;5350;42.698;23.148;2023-12-29T10:20:31;94108.91;;;11.17;75.77
10606;BME280;5350;42.698;23.148;2023-12-29T10:23:05;94104.19;;;11.38;75.90
10606;BME280;5350;42.698;23.148;2023-12-29T10:25:34;94090.00;;;11.57;75.77
10606;BME280;5350;42.698;23.148;2023-12-29T10:28:02;94092.88;;;11.98;72.95
10606;BME280;5350;42.698;23.148;2023-12-29T10:30:30;94095.34;;;12.27;72.29
10606;BME280;5350;42.698;23.148;2023-12-29T10:32:57;94098.56;;;12.56;72.01
10606;BME280;5350;42.698;23.148;2023-12-29T10:35:25;94080.84;;;12.75;68.82
10606;BME280;5350;42.698;23.148;2023-12-29T10:37:52;94087.09;;;13.11;66.16
10606;BME280;5350;42.698;23.148;2023-12-29T10:40:21;94081.81;;;13.38;64.61
10606;BME280;5350;42.698;23.148;2023-12-29T10:42:54;94081.28;;;13.63;62.70
10606;BME280;5350;42.698;23.148;2023-12-29T10:45:23;94075.41;;;13.67;63.73
10606;BME280;5350;42.698;23.148;2023-12-29T10:47:50;94063.22;;;13.79;62.71
10606;BME280;5350;42.698;23.148;2023-12-29T10:50:17;94066.44;;;13.90;63.62
10606;BME280;5350;42.698;23.148;2023-12-29T10:52:44;94060.03;;;14.04;63.14
10606;BME280;5350;42.698;23.148;2023-12-29T10:55:12;94070.91;;;14.03;61.92
10606;BME280;5350;42.698;23.148;2023-12-29T10:57:40;94052.47;;;14.11;62.37
10606;BME280;5350;42.698;23.148;2023-12-29T11:00:08;94051.03;;;14.27;61.82
10606;BME280;5350;42.698;23.148;2023-12-29T11:02:37;94047.47;;;14.46;59.05
10606;BME280;5350;42.698;23.148;2023-12-29T11:05:05;94029.81;;;14.41;59.06
10606;BME280;5350;42.698;23.148;2023-12-29T11:07:36;94040.47;;;14.50;58.96
10606;BME280;5350;42.698;23.148;2023-12-29T11:10:07;94046.28;;;14.60;58.04
10606;BME280;5350;42.698;23.148;2023-12-29T11:12:35;94037.41;;;14.65;56.68
10606;BME280;5350;42.698;23.148;2023-12-29T11:15:05;94036.81;;;14.37;57.20
10606;BME280;5350;42.698;23.148;2023-12-29T11:17:34;94038.47;;;14.55;56.88
10606;BME280;5350;42.698;23.148;2023-12-29T11:20:03;94032.66;;;14.75;57.59
10606;BME280;5350;42.698;23.148;2023-12-29T11:22:31;94032.47;;;15.02;56.59
10606;BME280;5350;42.698;23.148;2023-12-29T11:24:59;94037.03;;;15.19;53.70
10606;BME280;5350;42.698;23.148;2023-12-29T11:27:29;94030.25;;;15.35;53.11
10606;BME280;5350;42.698;23.148;2023-12-29T11:29:58;94017.66;;;15.49;52.34
10606;BME280;5350;42.698;23.148;2023-12-29T11:32:34;94021.44;;;15.74;52.47
10606;BME280;5350;42.698;23.148;2023-12-29T11:35:12;94030.81;;;16.06;50.58
10606;BME280;5350;42.698;23.148;2023-12-29T11:38:08;94012.84;;;16.37;48.19
10606;BME280;5350;42.698;23.148;2023-12-29T11:40:42;94003.16;;;16.58;47.98
10606;BME280;5350;42.698;23.148;2023-12-29T11:43:14;94000.34;;;16.54;47.32
10606;BME280;5350;42.698;23.148;2023-12-29T11:45:42;93990.91;;;16.74;47.20
10606;BME280;5350;42.698;23.148;2023-12-29T11:48:12;93991.03;;;16.77;47.29
10606;BME280;5350;42.698;23.148;2023-12-29T11:50:39;93994.50;;;16.78;47.15
10606;BME280;5350;42.698;23.148;2023-12-29T11:53:07;93989.63;;;16.89;47.43
10606;BME280;5350;42.698;23.148;2023-12-29T11:55:35;93987.34;;;17.08;47.51
10606;BME280;5350;42.698;23.148;2023-12-29T11:58:02;93988.72;;;17.14;46.67
10606;BME280;5350;42.698;23.148;2023-12-29T12:00:44;93980.50;;;17.27;45.78
10606;BME280;5350;42.698;23.148;2023-12-29T12:03:23;93974.63;;;17.42;45.69
10606;BME280;5350;42.698;23.148;2023-12-29T12:05:52;93972.44;;;17.44;44.49
10606;BME280;5350;42.698;23.148;2023-12-29T12:08:32;93968.53;;;17.42;44.75
10606;BME280;5350;42.698;23.148;2023-12-29T12:14:05;93945.72;;;17.41;45.24
10606;BME280;5350;42.698;23.148;2023-12-29T12:16:48;93975.22;;;17.77;43.77
10606;BME280;5350;42.698;23.148;2023-12-29T12:19:17;93970.28;;;17.67;43.73
10606;BME280;5350;42.698;23.148;2023-12-29T12:21:46;93969.13;;;17.56;44.47
10606;BME280;5350;42.698;23.148;2023-12-29T12:24:14;93970.22;;;17.55;44.01
10606;BME280;5350;42.698;23.148;2023-12-29T12:26:41;93980.16;;;17.67;43.84
10606;BME280;5350;42.698;23.148;2023-12-29T12:29:08;93981.69;;;17.88;42.26
10606;BME280;5350;42.698;23.148;2023-12-29T12:31:35;93967.31;;;17.89;42.56
10606;BME280;5350;42.698;23.148;2023-12-29T12:34:02;93966.22;;;18.02;42.26
10606;BME280;5350;42.698;23.148;2023-12-29T12:36:31;93975.22;;;18.30;42.18
10606;BME280;5350;42.698;23.148;2023-12-29T12:38:58;93969.94;;;18.43;41.77
10606;BME280;5350;42.698;23.148;2023-12-29T12:41:26;93976.19;;;18.47;39.89
10606;BME280;5350;42.698;23.148;2023-12-29T12:43:58;93974.88;;;18.53;40.33
10606;BME280;5350;42.698;23.148;2023-12-29T12:46:33;93971.59;;;18.35;40.32
10606;BME280;5350;42.698;23.148;2023-12-29T12:49:00;93974.53;;;18.21;40.67
10606;BME280;5350;42.698;23.148;2023-12-29T12:51:28;93957.16;;;18.03;40.61
10606;BME280;5350;42.698;23.148;2023-12-29T12:53:56;93962.28;;;18.08;41.06
10606;BME280;5350;42.698;23.148;2023-12-29T12:56:23;93968.97;;;18.14;40.92
10606;BME280;5350;42.698;23.148;2023-12-29T12:58:53;93971.66;;;18.26;40.27
10606;BME280;5350;42.698;23.148;2023-12-29T13:01:19;93973.66;;;18.29;39.00
10606;BME280;5350;42.698;23.148;2023-12-29T13:03:46;93967.88;;;18.27;38.88
10606;BME280;5350;42.698;23.148;2023-12-29T13:06:13;93965.94;;;18.36;39.39